METAR Data
IDs: Format: Raw Decoded Include TAF

Data at: 2115 UTC 08 Aug 2020

KBXK 082055Z AUTO 20010KT 10SM 42/04 A2986 RMK A01
KBXK 082035Z AUTO VRB04KT 10SM 41/03 A2986 RMK A01
KBXK 082015Z AUTO 20009KT 10SM 41/03 A2987 RMK A01
KBXK 081955Z AUTO 23003KT 10SM 41/05 A2987 RMK A01
KBXK 081935Z AUTO VRB06KT 10SM 41/06 A2988 RMK A01
KBXK 081915Z AUTO 22006KT 10SM 40/05 A2989 RMK A01
KBXK 081855Z AUTO VRB03KT 10SM 39/05 A2990 RMK A01
KBXK 081835Z AUTO VRB04KT 10SM 39/03 A2990 RMK A01
KBXK 081815Z AUTO VRB05KT 10SM 38/01 A2991 RMK A01
KBXK 081755Z AUTO VRB04KT 10SM 38/02 A2991 RMK A01
KBXK 081735Z AUTO VRB04KT 10SM CLR 37/06 A2992 RMK A01
KBXK 081715Z AUTO 22005KT 10SM CLR 36/07 A2992 RMK A01
KBXK 081655Z AUTO 17006KT 10SM CLR 35/09 A2992 RMK A01
KBXK 081635Z AUTO 19004KT 10SM CLR 35/09 A2992 RMK A01
KBXK 081615Z AUTO 21005KT 10SM CLR 35/09 A2992 RMK A01
KBXK 081555Z AUTO 00000KT 9SM CLR 34/09 A2992 RMK A01
KBXK 081535Z AUTO VRB03KT 10SM CLR 34/06 A2992 RMK A01
KBXK 081515Z AUTO 00000KT 10SM CLR 34/03 A2992 RMK A01
KBXK 081455Z AUTO 00000KT 10SM CLR 33/00 A2992 RMK A01
KBXK 081435Z AUTO 00000KT 10SM CLR 31/02 A2992 RMK A01
KBXK 081415Z AUTO 00000KT 10SM CLR 30/00 A2991 RMK A01
KBXK 081355Z AUTO 36004KT 10SM CLR 29/M03 A2990 RMK A01
KBXK 081335Z AUTO 01005KT 6SM HZ FEW130 28/M04 A2990 RMK A01
KBXK 081315Z AUTO 34007KT 4SM HZ CLR 26/M02 A2989 RMK A01
KBXK 081255Z AUTO 34005KT 6SM HZ CLR 25/M01 A2989 RMK A01
KBXK 081235Z AUTO 34006KT 5SM HZ 25/01 A2988 RMK A01
KBXK 081215Z AUTO 32003KT 6SM HZ 25/01 A2987 RMK A01
KBXK 081155Z AUTO 34006KT 8SM 25/02 A2987 RMK A01
KBXK 081135Z AUTO 33008KT 8SM CLR 26/04 A2987 RMK A01
KBXK 081115Z AUTO 33005KT 4SM HZ 26/05 A2986 RMK A01
KBXK 081055Z AUTO 00000KT 10SM SCT120 26/05 A2986 RMK A01
KBXK 081035Z AUTO 02004KT 10SM BKN120 BKN140 27/05 A2986 RMK A01
KBXK 081015Z AUTO 36004KT 10SM 27/05 A2986 RMK A01
KBXK 080955Z AUTO 33004KT 9SM 27/05 A2986 RMK A01
KBXK 080935Z AUTO 32005KT 10SM 28/05 A2986 RMK A01
KBXK 080915Z AUTO 33006KT 9SM BKN130 28/05 A2985 RMK A01
KBXK 080855Z AUTO 32007KT 6SM HZ 28/05 A2985 RMK A01
KBXK 080835Z AUTO 30006KT 10SM 28/06 A2985 RMK A01
KBXK 080815Z AUTO 26006KT 10SM 29/08 A2985 RMK A01
KBXK 080755Z AUTO 27005KT 9SM 28/06 A2985 RMK A01
KBXK 080735Z AUTO 00000KT 10SM 30/06 A2986 RMK A01
KBXK 080715Z AUTO 00000KT 10SM 29/07 A2985 RMK A01
KBXK 080655Z AUTO 00000KT 10SM 30/07 A2985 RMK A01
KBXK 080635Z AUTO 00000KT 10SM CLR 32/07 A2985 RMK A01
KBXK 080615Z AUTO 00000KT 10SM 33/08 A2984 RMK A01
KBXK 080555Z AUTO 32003KT 9SM 33/08 A2984 RMK A01
KBXK 080535Z AUTO 33006KT 9SM CLR 34/08 A2983 RMK A01
KBXK 080515Z AUTO 29003KT 10SM 34/08 A2983 RMK A01
KBXK 080455Z AUTO 27004KT 10SM 35/08 A2983 RMK A01
KBXK 080435Z AUTO 33004KT 10SM 35/06 A2982 RMK A01
KBXK 080415Z AUTO 00000KT 5SM HZ 35/07 A2982 RMK A01
KBXK 080355Z AUTO 32003KT 7SM 35/08 A2981 RMK A01
KBXK 080335Z AUTO 31004KT 10SM 36/08 A2980 RMK A01
KBXK 080315Z AUTO 28005KT 10SM CLR 36/08 A2979 RMK A01
KBXK 080255Z AUTO 28006KT 10SM CLR 37/08 A2978 RMK A01
KBXK 080235Z AUTO 26006KT 10SM CLR 38/08 A2978 RMK A01
KBXK 080215Z AUTO 27006KT 10SM CLR 38/09 A2978 RMK A01
KBXK 080155Z AUTO 24007G12KT 10SM CLR 39/08 A2978 RMK A01
KBXK 080135Z AUTO 27009KT 10SM CLR 40/09 A2977 RMK A01
KBXK 080115Z AUTO 25006G12KT 10SM CLR 40/09 A2977 RMK A01
KBXK 080055Z AUTO 25008KT 10SM CLR 41/08 A2977 RMK A01
KBXK 080035Z AUTO 20006G15KT 10SM FEW120 42/09 A2977 RMK A01
KBXK 080015Z AUTO 24007G17KT 10SM SCT120 42/11 A2977 RMK A01
KBXK 072355Z AUTO VRB04KT 10SM CLR 42/10 A2978 RMK A01
KBXK 072335Z AUTO 24005KT 10SM CLR 42/10 A2978 RMK A01
KBXK 072315Z AUTO 19008KT 10SM 42/11 A2979 RMK A01
KBXK 072255Z AUTO VRB05KT 10SM 41/11 A2979 RMK A01
KBXK 072235Z AUTO 13006KT 10SM 41/12 A2980 RMK A01
KBXK 072215Z AUTO 15006KT 10SM 40/13 A2981 RMK A01
KBXK 072155Z AUTO 16007KT 10SM 40/12 A2982 RMK A01
KBXK 072135Z AUTO VRB04G10KT 10SM 40/13 A2983 RMK A01
KBXK 072115Z AUTO 11006KT 10SM 40/12 A2983 RMK A01
KBXK 072055Z AUTO VRB06KT 10SM 39/12 A2984 RMK A01
KBXK 072035Z AUTO 16007KT 140V200 10SM 39/13 A2985 RMK A01
KBXK 072015Z AUTO 18006KT 10SM 38/14 A2986 RMK A01
KBXK 071955Z AUTO 17007G14KT 130V200 10SM 38/16 A2986 RMK A01
KBXK 071935Z AUTO 13006G11KT 10SM 38/16 A2987 RMK A01
KBXK 071915Z AUTO 12007KT 080V140 10SM 37/16 A2987 RMK A01
KBXK 071855Z AUTO VRB05KT 10SM 37/17 A2988 RMK A01
KBXK 071835Z AUTO 14006KT 10SM 36/17 A2988 RMK A01
KBXK 071815Z AUTO 09005G12KT 10SM 36/17 A2989 RMK A01
KBXK 071755Z AUTO VRB04G10KT 10SM CLR 36/17 A2989 RMK A01
KBXK 071735Z AUTO VRB04G11KT 10SM CLR 35/17 A2990 RMK A01
KBXK 071715Z AUTO 15007KT 10SM CLR 35/17 A2990 RMK A01
KBXK 071655Z AUTO 20004KT 10SM CLR 34/16 A2990 RMK A01
KBXK 071635Z AUTO VRB04KT 10SM CLR 34/16 A2989 RMK A01
KBXK 071615Z AUTO VRB03KT 10SM CLR 33/15 A2989 RMK A01
KBXK 071555Z AUTO 20004KT 10SM CLR 33/14 A2989 RMK A01
KBXK 071535Z AUTO 19003KT 10SM CLR 33/13 A2989 RMK A01
KBXK 071515Z AUTO 15003KT 9SM CLR 32/12 A2988 RMK A01
KBXK 071455Z AUTO 17003KT 8SM CLR 32/11 A2988 RMK A01
KBXK 071435Z AUTO 00000KT 10SM CLR 32/10 A2987 RMK A01
KBXK 071415Z AUTO 00000KT 10SM CLR 31/07 A2986 RMK A01
KBXK 071355Z AUTO 00000KT 10SM CLR 29/06 A2985 RMK A01
KBXK 071335Z AUTO 05003KT 10SM CLR 27/06 A2985 RMK A01
KBXK 071315Z AUTO 00000KT 10SM CLR 26/05 A2985 RMK A01
KBXK 071255Z AUTO 00000KT 10SM 27/04 A2984 RMK A01
KBXK 071235Z AUTO 28003KT 7SM 25/03 A2983 RMK A01
KBXK 071215Z AUTO 32004KT 10SM 25/01 A2982 RMK A01
KBXK 071155Z AUTO 36004KT 10SM 25/M01 A2982 RMK A01
KBXK 071135Z AUTO 01005KT 10SM CLR 25/M02 A2981 RMK A01
KBXK 071115Z AUTO 01006KT 10SM CLR 25/M03 A2980 RMK A01
KBXK 071055Z AUTO 00000KT 10SM CLR 25/M03 A2980 RMK A01
KBXK 071035Z AUTO 06003KT 10SM CLR 27/M00 A2979 RMK A01
KBXK 071015Z AUTO 34004KT 10SM CLR 25/M04 A2980 RMK A01
KBXK 070955Z AUTO 01006KT 10SM 25/M04 A2979 RMK A01
KBXK 070935Z AUTO 00000KT 10SM 25/M04 A2979 RMK A01